createdAt,value
2022-10-07T00:01:02.948Z,68.60
2022-10-07T00:03:29.818Z,63.87
2022-10-07T00:06:23.125Z,71.47
2022-10-07T00:08:52.616Z,61.33
2022-10-07T00:11:24.853Z,72.57
2022-10-07T00:13:57.743Z,60.50
2022-10-07T00:16:28.031Z,68.33
2022-10-07T00:18:57.682Z,73.53
2022-10-07T00:21:26.812Z,65.30
2022-10-07T00:23:53.545Z,67.50
2022-10-07T00:26:23.801Z,67.97
2022-10-07T00:28:51.170Z,55.90
2022-10-07T00:31:26.334Z,55.60
2022-10-07T00:33:54.649Z,57.53
2022-10-07T00:36:27.193Z,55.30
2022-10-07T00:38:59.609Z,48.67
2022-10-07T00:41:33.258Z,48.40
2022-10-07T00:44:01.010Z,41.50
2022-10-07T00:46:40.327Z,41.17
2022-10-07T00:49:12.789Z,41.27
2022-10-07T00:51:40.833Z,35.67
2022-10-07T00:54:16.752Z,38.27
2022-10-07T00:56:45.008Z,38.00
2022-10-07T00:59:14.290Z,33.13
2022-10-07T01:01:41.609Z,43.57
2022-10-07T01:04:13.519Z,38.03
2022-10-07T01:06:41.169Z,34.63
2022-10-07T01:09:10.131Z,34.23
2022-10-07T01:11:59.756Z,33.40
2022-10-07T01:14:42.570Z,33.43
2022-10-07T01:17:20.917Z,34.47
2022-10-07T01:20:02.271Z,30.77
2022-10-07T01:22:52.059Z,33.70
2022-10-07T01:25:38.906Z,32.77
2022-10-07T01:28:19.806Z,31.97
2022-10-07T01:30:55.309Z,29.47
2022-10-07T01:33:27.946Z,31.63
2022-10-07T01:35:57.115Z,35.73
2022-10-07T01:38:29.030Z,34.10
2022-10-07T01:41:04.855Z,32.17
2022-10-07T01:43:32.867Z,30.70
2022-10-07T01:45:59.873Z,31.73
2022-10-07T01:48:26.654Z,32.20
2022-10-07T01:50:54.193Z,29.73
2022-10-07T01:54:01.711Z,30.73
2022-10-07T01:56:37.349Z,32.37
2022-10-07T01:59:25.240Z,29.40
2022-10-07T02:02:17.874Z,26.97
2022-10-07T02:05:21.342Z,30.47
2022-10-07T02:08:23.899Z,33.27
2022-10-07T02:11:08.970Z,34.03
2022-10-07T02:13:39.560Z,26.87
2022-10-07T02:16:32.589Z,33.87
2022-10-07T02:19:03.099Z,29.87
2022-10-07T02:21:32.508Z,27.00
2022-10-07T02:24:00.659Z,32.23
2022-10-07T02:26:30.756Z,30.87
2022-10-07T02:28:59.521Z,25.80
2022-10-07T02:31:32.090Z,26.90
2022-10-07T02:34:03.159Z,27.53
2022-10-07T02:36:34.911Z,23.63
2022-10-07T02:39:02.046Z,23.27
2022-10-07T02:42:03.696Z,23.67
2022-10-07T02:44:50.022Z,27.57
2022-10-07T02:47:29.490Z,28.90
2022-10-07T02:50:01.287Z,19.37
2022-10-07T02:52:31.332Z,23.30
2022-10-07T02:55:00.308Z,24.53
2022-10-07T02:57:30.392Z,29.80
2022-10-07T02:59:58.900Z,26.50
2022-10-07T03:02:32.236Z,23.27
2022-10-07T03:04:59.246Z,22.00
2022-10-07T03:07:26.777Z,26.67
2022-10-07T03:09:54.368Z,22.97
2022-10-07T03:12:21.025Z,24.10
2022-10-07T03:14:49.989Z,26.30
2022-10-07T03:17:17.851Z,28.80
2022-10-07T03:19:44.531Z,25.67
2022-10-07T03:22:11.563Z,26.37
2022-10-07T03:24:38.400Z,30.50
2022-10-07T03:27:07.643Z,25.30
2022-10-07T03:29:35.271Z,28.77
2022-10-07T03:32:02.369Z,26.17
2022-10-07T03:34:30.479Z,26.00
2022-10-07T03:36:57.471Z,29.57
2022-10-07T03:39:24.245Z,27.53
2022-10-07T03:41:51.626Z,31.43
2022-10-07T03:44:19.468Z,28.83
2022-10-07T03:46:50.771Z,29.27
2022-10-07T03:49:19.713Z,35.30
2022-10-07T03:51:46.454Z,35.03
2022-10-07T03:54:13.301Z,31.47
2022-10-07T03:56:39.980Z,33.00
2022-10-07T03:59:06.626Z,31.70
2022-10-07T04:01:33.404Z,33.27
2022-10-07T04:04:00.899Z,32.30
2022-10-07T04:06:29.067Z,32.47
2022-10-07T04:08:56.228Z,32.13
2022-10-07T04:11:24.336Z,31.37
2022-10-07T04:13:51.646Z,30.30
2022-10-07T04:16:18.857Z,31.70
2022-10-07T04:18:46.219Z,28.97
2022-10-07T04:21:12.919Z,25.83
2022-10-07T04:23:41.704Z,28.73
2022-10-07T04:26:10.373Z,22.50
2022-10-07T04:28:37.703Z,27.27
2022-10-07T04:31:07.055Z,25.63
2022-10-07T04:33:33.762Z,30.00
2022-10-07T04:36:11.325Z,27.90
2022-10-07T04:38:38.066Z,27.50
2022-10-07T04:41:07.343Z,31.07
2022-10-07T04:43:34.818Z,30.30
2022-10-07T04:46:10.783Z,29.47
2022-10-07T04:48:37.484Z,30.03
2022-10-07T04:51:06.257Z,31.03
2022-10-07T04:53:33.472Z,34.20
2022-10-07T04:56:00.549Z,31.67
2022-10-07T04:58:28.454Z,37.03
2022-10-07T05:00:56.819Z,34.10
2022-10-07T05:03:25.728Z,40.30
2022-10-07T05:05:54.897Z,42.40
2022-10-07T05:08:26.446Z,43.57
2022-10-07T05:10:57.883Z,53.60
2022-10-07T05:13:26.285Z,52.77
2022-10-07T05:15:55.678Z,49.17
2022-10-07T05:18:23.409Z,47.17
2022-10-07T05:20:50.870Z,43.30
2022-10-07T05:23:22.300Z,44.63
2022-10-07T05:26:00.339Z,42.43
2022-10-07T05:28:27.638Z,42.73
2022-10-07T05:31:07.748Z,36.90
2022-10-07T05:33:35.466Z,42.43
2022-10-07T05:36:02.543Z,37.83
2022-10-07T05:38:29.331Z,37.13
2022-10-07T05:41:00.754Z,39.00
2022-10-07T05:43:29.767Z,38.20
2022-10-07T05:46:01.429Z,41.37
2022-10-07T05:48:29.775Z,42.83
2022-10-07T05:51:00.472Z,43.57
2022-10-07T05:53:28.710Z,40.47
2022-10-07T05:55:55.658Z,36.40
2022-10-07T05:58:22.815Z,39.30
2022-10-07T06:00:54.885Z,43.20
2022-10-07T06:03:22.720Z,41.53
2022-10-07T06:05:53.059Z,47.40
2022-10-07T06:08:21.634Z,60.07
2022-10-07T06:11:07.842Z,50.30
2022-10-07T06:13:36.403Z,54.90
2022-10-07T06:16:04.430Z,46.33
2022-10-07T06:18:31.291Z,50.10
2022-10-07T06:21:00.622Z,43.53
2022-10-07T06:23:28.687Z,47.87
2022-10-07T06:26:04.021Z,41.37
2022-10-07T06:28:39.116Z,36.70
2022-10-07T06:31:14.953Z,38.80
2022-10-07T06:33:41.723Z,39.77
2022-10-07T06:36:11.908Z,33.40
2022-10-07T06:38:43.394Z,39.97
2022-10-07T06:41:10.077Z,33.97
2022-10-07T06:43:36.761Z,36.20
2022-10-07T06:46:05.270Z,38.90
2022-10-07T06:48:34.039Z,32.07
2022-10-07T06:51:03.398Z,34.00
2022-10-07T06:53:31.219Z,35.07
2022-10-07T06:56:02.141Z,40.30
2022-10-07T06:58:29.139Z,33.77
2022-10-07T07:00:57.256Z,37.40
2022-10-07T07:03:24.290Z,38.70
2022-10-07T07:05:54.612Z,44.20
2022-10-07T07:08:23.985Z,45.30
2022-10-07T07:10:50.672Z,44.30
2022-10-07T07:13:18.141Z,39.07
2022-10-07T07:15:58.020Z,38.80
2022-10-07T07:18:25.034Z,36.87
2022-10-07T07:20:51.888Z,36.13
2022-10-07T07:23:19.138Z,40.63
2022-10-07T07:25:46.366Z,40.17
2022-10-07T07:28:15.441Z,37.40
2022-10-07T07:30:42.757Z,42.73
2022-10-07T07:33:10.584Z,33.50
2022-10-07T07:35:41.334Z,42.73
2022-10-07T07:38:08.801Z,35.13
2022-10-07T07:40:39.958Z,36.60
2022-10-07T07:43:07.507Z,30.97
2022-10-07T07:45:37.944Z,35.53
2022-10-07T07:48:04.809Z,32.60
2022-10-07T07:50:31.504Z,27.73
2022-10-07T07:53:00.160Z,26.80
2022-10-07T07:55:26.851Z,30.63
2022-10-07T07:57:53.583Z,27.83
2022-10-07T08:00:20.358Z,20.53
2022-10-07T08:02:47.663Z,20.23
2022-10-07T08:05:14.474Z,20.73
2022-10-07T08:07:41.175Z,21.83
2022-10-07T08:10:08.335Z,22.57
2022-10-07T08:12:34.993Z,18.20
2022-10-07T08:15:01.648Z,22.17
2022-10-07T08:17:28.424Z,19.63
2022-10-07T08:19:56.224Z,20.63
2022-10-07T08:22:22.947Z,17.97
2022-10-07T08:24:49.784Z,19.53
2022-10-07T08:27:16.516Z,19.40
2022-10-07T08:29:43.178Z,17.67
2022-10-07T08:32:09.899Z,15.87
2022-10-07T08:34:36.709Z,17.90
2022-10-07T08:37:04.140Z,17.43
2022-10-07T08:39:31.264Z,16.83
2022-10-07T08:42:03.646Z,16.70
2022-10-07T08:44:44.427Z,13.90
2022-10-07T08:47:24.543Z,17.73
2022-10-07T08:50:06.263Z,14.47
2022-10-07T08:52:41.362Z,13.57
2022-10-07T08:55:26.051Z,13.73
2022-10-07T08:58:50.515Z,14.90
2022-10-07T09:01:29.306Z,11.20
2022-10-07T09:04:18.722Z,16.83
2022-10-07T09:07:02.644Z,9.80
2022-10-07T09:09:51.643Z,15.33
2022-10-07T09:12:30.438Z,14.90
2022-10-07T09:15:00.523Z,12.17
2022-10-07T09:17:35.155Z,13.80
2022-10-07T09:20:07.315Z,11.33
2022-10-07T09:22:39.676Z,14.52
2022-10-07T09:25:13.374Z,15.52
2022-10-07T09:27:40.071Z,12.90
2022-10-07T09:30:07.299Z,11.63
2022-10-07T09:32:39.682Z,13.88
2022-10-07T09:35:06.622Z,12.73
2022-10-07T09:37:33.938Z,11.93
2022-10-07T09:40:21.410Z,14.90
2022-10-07T09:42:49.756Z,15.13
2022-10-07T09:45:24.446Z,17.90
2022-10-07T09:47:57.952Z,12.43
2022-10-07T09:50:30.716Z,10.93
2022-10-07T09:52:57.403Z,15.60
2022-10-07T09:55:49.362Z,12.60
2022-10-07T09:58:24.342Z,7.60
2022-10-07T10:00:53.411Z,7.78
2022-10-07T10:03:21.306Z,9.45
2022-10-07T10:06:00.026Z,9.60
2022-10-07T10:08:34.007Z,10.20
2022-10-07T10:11:07.128Z,10.05
2022-10-07T10:13:38.472Z,5.53
2022-10-07T10:16:34.399Z,7.05
2022-10-07T10:19:20.031Z,6.05
2022-10-07T10:21:57.974Z,5.35
2022-10-07T10:24:47.809Z,6.03
2022-10-07T10:27:30.937Z,6.28
2022-10-07T10:30:02.916Z,7.35
2022-10-07T10:32:50.951Z,5.07
2022-10-07T10:35:27.595Z,8.45
2022-10-07T10:38:23.340Z,6.25
2022-10-07T10:41:39.846Z,8.73
2022-10-07T10:44:20.020Z,6.60
2022-10-07T10:47:24.905Z,8.48
2022-10-07T10:50:12.309Z,4.45
2022-10-07T10:52:45.391Z,7.50
2022-10-07T10:55:15.381Z,6.60
2022-10-07T10:58:05.004Z,7.63
2022-10-07T11:00:41.979Z,8.30
2022-10-07T11:03:26.208Z,5.88
2022-10-07T11:05:55.643Z,5.53
2022-10-07T11:08:36.983Z,5.90
2022-10-07T11:11:12.336Z,6.63
2022-10-07T11:13:48.044Z,7.90
2022-10-07T11:16:23.805Z,8.43
2022-10-07T11:18:58.758Z,8.10
2022-10-07T11:21:33.250Z,7.22
2022-10-07T11:24:01.448Z,6.28
2022-10-07T11:26:37.522Z,7.22
2022-10-07T11:29:49.324Z,10.15
2022-10-07T11:32:31.564Z,6.63
2022-10-07T11:35:26.970Z,6.85
2022-10-07T11:38:13.002Z,5.93
2022-10-07T11:40:56.595Z,8.13
2022-10-07T11:43:45.376Z,5.43
2022-10-07T11:46:14.926Z,5.85
2022-10-07T11:49:07.246Z,4.50
2022-10-07T11:51:45.361Z,6.45
2022-10-07T11:54:16.582Z,6.85
2022-10-07T11:56:53.138Z,6.10
2022-10-07T11:59:46.055Z,6.80
2022-10-07T12:02:30.880Z,8.30
2022-10-07T12:05:02.352Z,7.65
2022-10-07T12:07:37.077Z,15.65
2022-10-07T12:10:03.865Z,37.33
2022-10-07T12:12:42.842Z,10.30
2022-10-07T12:15:33.097Z,6.13
2022-10-07T12:18:25.475Z,5.75
2022-10-07T12:20:55.536Z,23.65
2022-10-07T12:23:22.307Z,34.70
2022-10-07T12:25:54.079Z,28.17
2022-10-07T12:28:30.798Z,9.27
2022-10-07T12:31:25.557Z,19.35
2022-10-07T12:34:05.706Z,6.18
2022-10-07T12:36:32.806Z,7.97
2022-10-07T12:38:59.467Z,6.85
2022-10-07T12:41:29.215Z,11.07
2022-10-07T12:44:26.327Z,14.77
2022-10-07T12:46:58.094Z,6.18
2022-10-07T12:49:39.742Z,6.05
2022-10-07T12:52:16.335Z,5.85
2022-10-07T12:54:54.577Z,11.93
2022-10-07T12:57:30.869Z,9.68
2022-10-07T13:00:18.744Z,7.53
2022-10-07T13:03:26.009Z,7.00
2022-10-07T13:06:13.148Z,8.63
2022-10-07T13:09:12.700Z,11.40
2022-10-07T13:11:59.807Z,8.18
2022-10-07T13:14:29.478Z,12.65
2022-10-07T13:17:14.229Z,7.47
2022-10-07T13:20:20.183Z,9.48
2022-10-07T13:22:49.121Z,5.07
2022-10-07T13:25:19.630Z,6.95
2022-10-07T13:27:53.710Z,9.63
2022-10-07T13:30:40.007Z,7.72
2022-10-07T13:33:28.969Z,6.13
2022-10-07T13:36:18.254Z,4.20
2022-10-07T13:38:48.955Z,7.53
2022-10-07T13:41:24.242Z,9.45
2022-10-07T13:43:54.681Z,4.63
2022-10-07T13:46:23.928Z,5.20
2022-10-07T13:48:51.418Z,3.67
2022-10-07T13:51:37.315Z,4.13
2022-10-07T13:54:07.959Z,5.90
2022-10-07T13:56:39.811Z,4.30
2022-10-07T13:59:08.482Z,5.82
2022-10-07T14:01:40.494Z,5.22
2022-10-07T14:04:15.919Z,3.25
2022-10-07T14:06:51.244Z,3.28
2022-10-07T14:09:27.125Z,7.20
2022-10-07T14:12:01.034Z,5.22
2022-10-07T14:14:33.581Z,4.63
2022-10-07T14:17:00.567Z,5.35
2022-10-07T14:19:33.143Z,3.95
2022-10-07T14:22:12.985Z,5.97
2022-10-07T14:24:41.784Z,4.55
2022-10-07T14:27:47.091Z,3.78
2022-10-07T14:30:58.616Z,5.18
2022-10-07T14:33:58.934Z,4.75
2022-10-07T14:36:26.059Z,4.10
2022-10-07T14:38:55.746Z,2.97
2022-10-07T14:41:23.656Z,3.90
2022-10-07T14:43:52.008Z,5.55
2022-10-07T14:46:24.189Z,4.43
2022-10-07T14:48:53.540Z,6.22
2022-10-07T14:51:29.512Z,4.00
2022-10-07T14:54:06.714Z,5.78
2022-10-07T14:56:35.278Z,5.38
2022-10-07T14:59:02.295Z,6.05
2022-10-07T15:01:32.722Z,5.10
2022-10-07T15:03:59.586Z,4.93
2022-10-07T15:06:26.392Z,7.97
2022-10-07T15:08:53.646Z,3.15
2022-10-07T15:11:21.610Z,8.43
2022-10-07T15:13:51.010Z,4.22
2022-10-07T15:16:26.433Z,4.20
2022-10-07T15:18:53.502Z,5.47
2022-10-07T15:21:23.075Z,6.22
2022-10-07T15:23:52.089Z,8.00
2022-10-07T15:26:21.283Z,4.35
2022-10-07T15:28:50.605Z,5.85
2022-10-07T15:31:17.655Z,4.65
2022-10-07T15:33:45.659Z,5.85
2022-10-07T15:36:13.376Z,8.85
2022-10-07T15:38:42.848Z,4.15
2022-10-07T15:41:15.014Z,6.28
2022-10-07T15:43:41.664Z,7.22
2022-10-07T15:46:08.409Z,8.95
2022-10-07T15:48:35.348Z,10.15
2022-10-07T15:51:02.126Z,7.72
2022-10-07T15:53:28.768Z,6.25
2022-10-07T15:55:56.970Z,11.95
2022-10-07T15:58:28.540Z,8.32
2022-10-07T16:01:06.658Z,18.23
2022-10-07T16:03:39.919Z,20.42
2022-10-07T16:06:21.842Z,25.25
2022-10-07T16:08:49.750Z,25.85
2022-10-07T16:11:17.337Z,42.40
2022-10-07T16:13:47.019Z,42.65
2022-10-07T16:16:22.789Z,52.70
2022-10-07T16:18:51.761Z,44.13
2022-10-07T16:21:29.168Z,45.72
2022-10-07T16:23:58.564Z,46.47
2022-10-07T16:26:30.026Z,45.72
2022-10-07T16:29:19.287Z,56.33
2022-10-07T16:31:47.661Z,55.83
2022-10-07T16:34:16.189Z,58.40
2022-10-07T16:36:45.886Z,56.00
2022-10-07T16:39:12.923Z,62.25
2022-10-07T16:41:42.707Z,50.58
2022-10-07T16:44:09.885Z,49.90
2022-10-07T16:46:37.056Z,40.05
2022-10-07T16:49:08.521Z,50.33
2022-10-07T16:51:37.136Z,68.40
2022-10-07T16:54:12.906Z,138.43
2022-10-07T16:56:42.233Z,408.23
2022-10-07T16:59:11.876Z,443.42
2022-10-07T17:01:39.365Z,334.48
2022-10-07T17:04:07.153Z,293.30
2022-10-07T17:06:35.445Z,224.32
2022-10-07T17:09:05.555Z,177.48
2022-10-07T17:11:36.251Z,168.50
2022-10-07T17:14:06.337Z,163.32
2022-10-07T17:16:36.678Z,142.90
2022-10-07T17:19:04.351Z,140.33
2022-10-07T17:21:31.022Z,155.20
2022-10-07T17:23:58.239Z,156.23
2022-10-07T17:26:26.977Z,128.47
2022-10-07T17:29:14.041Z,110.37
2022-10-07T17:31:43.602Z,102.80
2022-10-07T17:34:11.827Z,99.57
2022-10-07T17:36:39.709Z,104.90
2022-10-07T17:39:07.210Z,109.23
2022-10-07T17:41:36.682Z,107.70
2022-10-07T17:44:07.121Z,123.30
2022-10-07T17:46:36.450Z,156.40
2022-10-07T17:49:03.815Z,138.20
2022-10-07T17:51:32.767Z,129.33
2022-10-07T17:54:01.014Z,126.77
2022-10-07T17:56:29.493Z,134.00
2022-10-07T17:58:57.175Z,130.10
2022-10-07T18:01:28.680Z,130.80
2022-10-07T18:04:04.320Z,135.93
2022-10-07T18:06:33.611Z,120.57
2022-10-07T18:09:03.407Z,95.73
2022-10-07T18:11:50.432Z,90.60
2022-10-07T18:14:35.970Z,80.73
2022-10-07T18:17:03.734Z,86.93
2022-10-07T18:19:30.539Z,72.73
2022-10-07T18:21:57.860Z,68.97
2022-10-07T18:24:28.158Z,67.67
2022-10-07T18:26:59.377Z,71.47
2022-10-07T18:29:27.355Z,73.17
2022-10-07T18:31:54.287Z,67.73
2022-10-07T18:34:21.036Z,75.03
2022-10-07T18:36:49.078Z,89.00
2022-10-07T18:39:17.985Z,80.03
2022-10-07T18:41:44.770Z,90.50
2022-10-07T18:44:12.134Z,103.60
2022-10-07T18:46:38.979Z,150.27
2022-10-07T18:49:05.706Z,132.17
2022-10-07T18:51:32.515Z,140.20
2022-10-07T18:53:59.416Z,155.40
2022-10-07T18:56:26.200Z,152.40
2022-10-07T18:58:53.253Z,130.13
2022-10-07T19:01:24.005Z,116.87
2022-10-07T19:04:00.373Z,114.40
2022-10-07T19:06:28.057Z,112.17
2022-10-07T19:09:03.560Z,94.80
2022-10-07T19:11:30.564Z,101.93
2022-10-07T19:13:59.191Z,108.60
2022-10-07T19:16:34.435Z,129.83
2022-10-07T19:19:07.196Z,131.67
2022-10-07T19:21:35.518Z,134.00
2022-10-07T19:24:04.394Z,124.17
2022-10-07T19:26:35.805Z,107.87
2022-10-07T19:29:03.997Z,106.30
2022-10-07T19:31:41.490Z,104.33
2022-10-07T19:34:11.356Z,98.07
2022-10-07T19:36:40.347Z,96.30
2022-10-07T19:39:08.055Z,84.37
2022-10-07T19:41:36.783Z,84.70
2022-10-07T19:44:04.266Z,90.47
2022-10-07T19:46:33.340Z,88.13
2022-10-07T19:49:01.663Z,92.87
2022-10-07T19:51:32.701Z,102.03
2022-10-07T19:54:01.712Z,119.60
2022-10-07T19:56:33.808Z,104.10
2022-10-07T19:59:03.783Z,111.77
2022-10-07T20:01:32.496Z,107.37
2022-10-07T20:04:14.679Z,120.27
2022-10-07T20:06:42.844Z,96.40
2022-10-07T20:09:13.293Z,99.97
2022-10-07T20:11:40.385Z,85.80
2022-10-07T20:14:07.645Z,89.87
2022-10-07T20:16:35.237Z,88.40
2022-10-07T20:19:07.890Z,85.67
2022-10-07T20:21:36.674Z,90.23
2022-10-07T20:24:04.554Z,95.07
2022-10-07T20:26:38.617Z,102.07
2022-10-07T20:29:07.196Z,107.10
2022-10-07T20:31:35.872Z,132.03
2022-10-07T20:34:03.294Z,125.73
2022-10-07T20:36:35.735Z,122.63
2022-10-07T20:39:33.778Z,133.07
2022-10-07T20:42:19.467Z,122.83
2022-10-07T20:44:48.326Z,118.77
2022-10-07T20:47:15.228Z,126.77
2022-10-07T20:49:42.329Z,120.53
2022-10-07T20:52:16.863Z,118.80
2022-10-07T20:54:45.150Z,116.40
2022-10-07T20:57:13.593Z,125.10
2022-10-07T20:59:40.253Z,158.30
2022-10-07T21:02:09.524Z,150.60
2022-10-07T21:04:36.616Z,140.03
2022-10-07T21:07:03.428Z,138.67
2022-10-07T21:09:36.508Z,135.87
2022-10-07T21:12:07.447Z,125.43
2022-10-07T21:14:37.785Z,134.83
2022-10-07T21:17:06.383Z,141.83
2022-10-07T21:19:35.646Z,132.23
2022-10-07T21:22:04.187Z,135.83
2022-10-07T21:24:34.284Z,135.10
2022-10-07T21:27:06.032Z,143.13
2022-10-07T21:29:37.422Z,144.43
2022-10-07T21:32:06.422Z,146.30
2022-10-07T21:34:33.177Z,148.00
2022-10-07T21:37:00.163Z,146.30
2022-10-07T21:39:27.067Z,156.80
2022-10-07T21:41:55.647Z,159.97
2022-10-07T21:44:22.379Z,142.73
2022-10-07T21:46:49.350Z,153.67
2022-10-07T21:49:16.749Z,155.70
2022-10-07T21:51:43.828Z,143.50
2022-10-07T21:54:14.343Z,130.87
2022-10-07T21:56:43.626Z,125.70
2022-10-07T21:59:10.642Z,122.90
2022-10-07T22:01:38.605Z,110.53
2022-10-07T22:04:06.135Z,101.93
2022-10-07T22:06:51.924Z,93.47
2022-10-07T22:09:21.140Z,98.37
2022-10-07T22:11:49.028Z,104.63
2022-10-07T22:14:17.171Z,105.37
2022-10-07T22:16:44.846Z,107.87
2022-10-07T22:19:12.129Z,113.27
2022-10-07T22:21:40.352Z,130.77
2022-10-07T22:24:08.734Z,133.70
2022-10-07T22:26:42.112Z,150.27
2022-10-07T22:29:10.061Z,152.77
2022-10-07T22:31:37.622Z,152.30
2022-10-07T22:34:05.281Z,155.03
2022-10-07T22:36:32.397Z,155.17
2022-10-07T22:38:59.826Z,155.37
2022-10-07T22:41:27.371Z,159.33
2022-10-07T22:43:54.210Z,162.83
2022-10-07T22:46:26.085Z,153.17
2022-10-07T22:48:58.028Z,159.07
2022-10-07T22:51:28.525Z,153.37
2022-10-07T22:53:56.564Z,158.83
2022-10-07T22:56:26.147Z,162.03
2022-10-07T22:59:00.086Z,162.13
2022-10-07T23:01:31.356Z,163.77
2022-10-07T23:04:00.832Z,164.57
2022-10-07T23:06:27.932Z,157.13
2022-10-07T23:08:55.055Z,154.43
2022-10-07T23:11:24.078Z,152.63
2022-10-07T23:13:51.547Z,136.93
2022-10-07T23:16:21.112Z,149.10
2022-10-07T23:18:49.530Z,130.87
2022-10-07T23:21:18.457Z,125.03
2022-10-07T23:23:47.449Z,120.43
2022-10-07T23:26:16.820Z,112.70
2022-10-07T23:28:43.540Z,118.47
2022-10-07T23:31:12.853Z,120.27
2022-10-07T23:33:39.609Z,124.87
2022-10-07T23:36:10.365Z,117.23
2022-10-07T23:38:39.018Z,123.10
2022-10-07T23:41:06.928Z,115.53
2022-10-07T23:43:34.482Z,118.00
2022-10-07T23:46:02.457Z,119.03
2022-10-07T23:48:34.594Z,115.97
2022-10-07T23:51:03.356Z,125.77
2022-10-07T23:53:31.057Z,123.23
2022-10-07T23:55:57.938Z,129.77
2022-10-07T23:58:28.398Z,136.83
